sensor_id;sensor_type;location;lat;lon;timestamp;pressure;altitude;pressure_sealevel;temperature;humidity
60611;BME280;46439;51.164;13.572;2024-01-15T00:00:41;98415.36;;;3.04;0.00
60611;BME280;46439;51.164;13.572;2024-01-15T00:03:09;98408.81;;;3.09;0.00
60611;BME280;46439;51.164;13.572;2024-01-15T00:05:38;98409.17;;;3.10;0.00
60611;BME280;46439;51.164;13.572;2024-01-15T00:08:06;98410.31;;;3.10;0.00
60611;BME280;46439;51.164;13.572;2024-01-15T00:10:35;98402.20;;;3.04;0.00
60611;BME280;46439;51.164;13.572;2024-01-15T00:13:10;98398.21;;;3.05;0.00
60611;BME280;46439;51.164;13.572;2024-01-15T00:15:38;98392.88;;;3.02;0.00
60611;BME280;46439;51.164;13.572;2024-01-15T00:18:13;98390.48;;;3.01;0.00
60611;BME280;46439;51.164;13.572;2024-01-15T00:20:42;98394.83;;;2.99;0.00
60611;BME280;46439;51.164;13.572;2024-01-15T00:23:10;98396.64;;;3.00;0.00
60611;BME280;46439;51.164;13.572;2024-01-15T00:25:40;98388.38;;;2.99;0.00
60611;BME280;46439;51.164;13.572;2024-01-15T00:28:09;98384.80;;;2.99;0.00
60611;BME280;46439;51.164;13.572;2024-01-15T00:30:37;98384.64;;;2.94;0.00
60611;BME280;46439;51.164;13.572;2024-01-15T00:33:06;98381.20;;;2.95;0.00
60611;BME280;46439;51.164;13.572;2024-01-15T00:35:35;98374.58;;;2.94;0.00
60611;BME280;46439;51.164;13.572;2024-01-15T00:38:06;98377.41;;;2.97;0.00
60611;BME280;46439;51.164;13.572;2024-01-15T00:40:34;98372.88;;;2.99;0.00
60611;BME280;46439;51.164;13.572;2024-01-15T00:43:03;98372.21;;;3.01;0.00
60611;BME280;46439;51.164;13.572;2024-01-15T00:45:31;98366.05;;;3.00;0.00
60611;BME280;46439;51.164;13.572;2024-01-15T00:47:59;98367.42;;;3.01;0.00
60611;BME280;46439;51.164;13.572;2024-01-15T00:50:29;98361.48;;;2.98;0.00
60611;BME280;46439;51.164;13.572;2024-01-15T00:52:57;98353.04;;;2.94;0.00
60611;BME280;46439;51.164;13.572;2024-01-15T00:55:25;98355.36;;;2.94;0.00
60611;BME280;46439;51.164;13.572;2024-01-15T00:57:53;98353.84;;;2.98;0.00
60611;BME280;46439;51.164;13.572;2024-01-15T01:00:21;98353.58;;;2.98;0.00
60611;BME280;46439;51.164;13.572;2024-01-15T01:02:49;98350.75;;;3.02;0.00
60611;BME280;46439;51.164;13.572;2024-01-15T01:05:18;98348.81;;;3.02;0.00
60611;BME280;46439;51.164;13.572;2024-01-15T01:07:46;98342.80;;;2.98;0.00
60611;BME280;46439;51.164;13.572;2024-01-15T01:10:14;98334.96;;;2.95;0.00
60611;BME280;46439;51.164;13.572;2024-01-15T01:12:42;98329.23;;;2.89;0.00
60611;BME280;46439;51.164;13.572;2024-01-15T01:15:11;98321.16;;;2.85;0.00
60611;BME280;46439;51.164;13.572;2024-01-15T01:17:39;98324.15;;;2.87;0.00
60611;BME280;46439;51.164;13.572;2024-01-15T01:20:09;98317.93;;;2.85;0.00
60611;BME280;46439;51.164;13.572;2024-01-15T01:22:38;98319.79;;;2.83;0.00
60611;BME280;46439;51.164;13.572;2024-01-15T01:25:08;98322.16;;;2.84;0.00
60611;BME280;46439;51.164;13.572;2024-01-15T01:27:37;98322.09;;;2.86;0.00
60611;BME280;46439;51.164;13.572;2024-01-15T01:30:07;98320.61;;;2.86;0.00
60611;BME280;46439;51.164;13.572;2024-01-15T01:32:35;98322.30;;;2.86;0.00
60611;BME280;46439;51.164;13.572;2024-01-15T01:35:04;98318.50;;;2.83;0.00
60611;BME280;46439;51.164;13.572;2024-01-15T01:37:32;98314.33;;;2.82;0.00
60611;BME280;46439;51.164;13.572;2024-01-15T01:40:02;98321.65;;;2.83;0.00
60611;BME280;46439;51.164;13.572;2024-01-15T01:42:30;98319.77;;;2.83;0.00
60611;BME280;46439;51.164;13.572;2024-01-15T01:44:58;98317.49;;;2.83;0.00
60611;BME280;46439;51.164;13.572;2024-01-15T01:47:26;98314.11;;;2.81;0.00
60611;BME280;46439;51.164;13.572;2024-01-15T01:49:55;98315.04;;;2.81;0.00
60611;BME280;46439;51.164;13.572;2024-01-15T01:52:24;98307.52;;;2.80;0.00
60611;BME280;46439;51.164;13.572;2024-01-15T01:54:53;98303.05;;;2.82;0.00
60611;BME280;46439;51.164;13.572;2024-01-15T01:57:21;98305.45;;;2.81;0.00
60611;BME280;46439;51.164;13.572;2024-01-15T01:59:50;98306.52;;;2.76;0.00
60611;BME280;46439;51.164;13.572;2024-01-15T02:02:19;98294.20;;;2.76;0.00
60611;BME280;46439;51.164;13.572;2024-01-15T02:04:50;98299.90;;;2.80;0.00
60611;BME280;46439;51.164;13.572;2024-01-15T02:07:18;98294.83;;;2.79;0.00
60611;BME280;46439;51.164;13.572;2024-01-15T02:09:47;98291.92;;;2.79;0.00
60611;BME280;46439;51.164;13.572;2024-01-15T02:12:15;98282.49;;;2.81;0.00
60611;BME280;46439;51.164;13.572;2024-01-15T02:14:43;98287.00;;;2.76;0.00
60611;BME280;46439;51.164;13.572;2024-01-15T02:17:11;98292.50;;;2.72;0.00
60611;BME280;46439;51.164;13.572;2024-01-15T02:19:39;98286.73;;;2.70;0.00
60611;BME280;46439;51.164;13.572;2024-01-15T02:22:08;98288.38;;;2.71;0.00
60611;BME280;46439;51.164;13.572;2024-01-15T02:24:36;98286.98;;;2.73;0.00
60611;BME280;46439;51.164;13.572;2024-01-15T02:27:05;98280.54;;;2.75;0.00
60611;BME280;46439;51.164;13.572;2024-01-15T02:29:33;98277.85;;;2.77;0.00
60611;BME280;46439;51.164;13.572;2024-01-15T02:32:06;98279.77;;;2.77;0.00
60611;BME280;46439;51.164;13.572;2024-01-15T02:34:34;98273.48;;;2.77;0.00
60611;BME280;46439;51.164;13.572;2024-01-15T02:37:02;98270.44;;;2.78;0.00
60611;BME280;46439;51.164;13.572;2024-01-15T02:39:30;98271.31;;;2.78;0.00
60611;BME280;46439;51.164;13.572;2024-01-15T02:41:58;98270.10;;;2.79;0.00
60611;BME280;46439;51.164;13.572;2024-01-15T02:44:26;98266.28;;;2.78;0.00
60611;BME280;46439;51.164;13.572;2024-01-15T02:46:54;98262.30;;;2.77;0.00
60611;BME280;46439;51.164;13.572;2024-01-15T02:49:22;98261.92;;;2.76;0.00
60611;BME280;46439;51.164;13.572;2024-01-15T02:51:50;98264.79;;;2.76;0.00
60611;BME280;46439;51.164;13.572;2024-01-15T02:54:18;98261.80;;;2.76;0.00
60611;BME280;46439;51.164;13.572;2024-01-15T02:56:46;98263.19;;;2.76;0.00
60611;BME280;46439;51.164;13.572;2024-01-15T02:59:14;98261.96;;;2.71;0.00
60611;BME280;46439;51.164;13.572;2024-01-15T03:01:42;98258.64;;;2.72;0.00
60611;BME280;46439;51.164;13.572;2024-01-15T03:04:11;98258.40;;;2.69;0.00
60611;BME280;46439;51.164;13.572;2024-01-15T03:06:39;98261.73;;;2.70;0.00
60611;BME280;46439;51.164;13.572;2024-01-15T03:09:07;98259.57;;;2.68;0.00
60611;BME280;46439;51.164;13.572;2024-01-15T03:11:40;98253.58;;;2.66;0.00
60611;BME280;46439;51.164;13.572;2024-01-15T03:14:08;98256.75;;;2.66;0.00
60611;BME280;46439;51.164;13.572;2024-01-15T03:16:36;98261.15;;;2.67;0.00
60611;BME280;46439;51.164;13.572;2024-01-15T03:19:04;98256.94;;;2.62;0.00
60611;BME280;46439;51.164;13.572;2024-01-15T03:21:32;98259.19;;;2.64;0.00
60611;BME280;46439;51.164;13.572;2024-01-15T03:24:00;98264.41;;;2.63;0.00
60611;BME280;46439;51.164;13.572;2024-01-15T03:26:28;98264.02;;;2.62;0.00
60611;BME280;46439;51.164;13.572;2024-01-15T03:28:57;98268.55;;;2.61;0.00
60611;BME280;46439;51.164;13.572;2024-01-15T03:31:25;98258.73;;;2.60;0.00
60611;BME280;46439;51.164;13.572;2024-01-15T03:33:53;98261.89;;;2.59;0.00
60611;BME280;46439;51.164;13.572;2024-01-15T03:36:21;98267.35;;;2.57;0.00
60611;BME280;46439;51.164;13.572;2024-01-15T03:38:49;98276.85;;;2.57;0.00
60611;BME280;46439;51.164;13.572;2024-01-15T03:41:18;98268.63;;;2.54;0.00
60611;BME280;46439;51.164;13.572;2024-01-15T03:43:46;98272.22;;;2.54;0.00
60611;BME280;46439;51.164;13.572;2024-01-15T03:46:14;98274.45;;;2.53;0.00
60611;BME280;46439;51.164;13.572;2024-01-15T03:48:42;98279.72;;;2.51;0.00
60611;BME280;46439;51.164;13.572;2024-01-15T03:51:10;98268.57;;;2.51;0.00
60611;BME280;46439;51.164;13.572;2024-01-15T03:53:39;98271.53;;;2.50;0.00
60611;BME280;46439;51.164;13.572;2024-01-15T03:56:07;98267.38;;;2.47;0.00
60611;BME280;46439;51.164;13.572;2024-01-15T03:58:35;98264.52;;;2.46;0.00
60611;BME280;46439;51.164;13.572;2024-01-15T04:01:03;98265.77;;;2.45;0.00
60611;BME280;46439;51.164;13.572;2024-01-15T04:03:31;98269.30;;;2.44;0.00
60611;BME280;46439;51.164;13.572;2024-01-15T04:05:59;98269.94;;;2.42;0.00
60611;BME280;46439;51.164;13.572;2024-01-15T04:08:27;98270.94;;;2.41;0.00
60611;BME280;46439;51.164;13.572;2024-01-15T04:10:55;98263.38;;;2.42;0.00
60611;BME280;46439;51.164;13.572;2024-01-15T04:13:23;98262.52;;;2.40;0.00
60611;BME280;46439;51.164;13.572;2024-01-15T04:15:51;98262.85;;;2.40;0.00
60611;BME280;46439;51.164;13.572;2024-01-15T04:18:19;98263.77;;;2.40;0.00
60611;BME280;46439;51.164;13.572;2024-01-15T04:20:47;98263.91;;;2.40;0.00
60611;BME280;46439;51.164;13.572;2024-01-15T04:23:15;98267.89;;;2.35;0.00
60611;BME280;46439;51.164;13.572;2024-01-15T04:25:44;98264.59;;;2.29;0.00
60611;BME280;46439;51.164;13.572;2024-01-15T04:28:14;98261.80;;;2.25;0.00
60611;BME280;46439;51.164;13.572;2024-01-15T04:30:42;98264.44;;;2.25;0.00
60611;BME280;46439;51.164;13.572;2024-01-15T04:33:10;98264.43;;;2.29;0.00
60611;BME280;46439;51.164;13.572;2024-01-15T04:35:38;98258.94;;;2.27;0.00
60611;BME280;46439;51.164;13.572;2024-01-15T04:38:06;98268.29;;;2.26;0.00
60611;BME280;46439;51.164;13.572;2024-01-15T04:40:34;98274.62;;;2.25;0.00
60611;BME280;46439;51.164;13.572;2024-01-15T04:43:02;98275.50;;;2.25;0.00
60611;BME280;46439;51.164;13.572;2024-01-15T04:45:30;98279.66;;;2.24;0.00
60611;BME280;46439;51.164;13.572;2024-01-15T04:47:58;98280.96;;;2.22;0.00
60611;BME280;46439;51.164;13.572;2024-01-15T04:50:26;98277.58;;;2.22;0.00
60611;BME280;46439;51.164;13.572;2024-01-15T04:52:54;98277.50;;;2.11;0.00
60611;BME280;46439;51.164;13.572;2024-01-15T04:55:23;98274.72;;;2.09;0.00
60611;BME280;46439;51.164;13.572;2024-01-15T04:57:51;98276.00;;;2.01;0.00
60611;BME280;46439;51.164;13.572;2024-01-15T05:00:19;98271.18;;;1.94;0.00
60611;BME280;46439;51.164;13.572;2024-01-15T05:02:47;98275.44;;;1.89;0.00
60611;BME280;46439;51.164;13.572;2024-01-15T05:05:15;98276.92;;;1.85;0.00
60611;BME280;46439;51.164;13.572;2024-01-15T05:07:43;98273.58;;;1.95;0.00
60611;BME280;46439;51.164;13.572;2024-01-15T05:10:12;98277.46;;;1.90;0.00
60611;BME280;46439;51.164;13.572;2024-01-15T05:12:40;98274.59;;;1.89;0.00
60611;BME280;46439;51.164;13.572;2024-01-15T05:15:08;98279.92;;;1.92;0.00
60611;BME280;46439;51.164;13.572;2024-01-15T05:17:37;98274.58;;;1.96;0.00
60611;BME280;46439;51.164;13.572;2024-01-15T05:20:07;98284.42;;;1.98;0.00
60611;BME280;46439;51.164;13.572;2024-01-15T05:22:35;98280.09;;;2.00;0.00
60611;BME280;46439;51.164;13.572;2024-01-15T05:25:03;98280.02;;;2.01;0.00
60611;BME280;46439;51.164;13.572;2024-01-15T05:27:31;98274.48;;;2.02;0.00
60611;BME280;46439;51.164;13.572;2024-01-15T05:29:59;98270.05;;;2.01;0.00
60611;BME280;46439;51.164;13.572;2024-01-15T05:32:28;98262.40;;;2.02;0.00
60611;BME280;46439;51.164;13.572;2024-01-15T05:34:56;98260.40;;;2.02;0.00
60611;BME280;46439;51.164;13.572;2024-01-15T05:37:24;98271.48;;;2.00;0.00
60611;BME280;46439;51.164;13.572;2024-01-15T05:39:52;98279.13;;;1.93;0.00
60611;BME280;46439;51.164;13.572;2024-01-15T05:42:20;98272.73;;;1.91;0.00
60611;BME280;46439;51.164;13.572;2024-01-15T05:44:48;98273.20;;;1.92;0.00
60611;BME280;46439;51.164;13.572;2024-01-15T05:47:16;98276.23;;;1.93;0.00
60611;BME280;46439;51.164;13.572;2024-01-15T05:49:45;98277.43;;;1.94;0.00
60611;BME280;46439;51.164;13.572;2024-01-15T05:52:13;98277.50;;;1.97;0.00
60611;BME280;46439;51.164;13.572;2024-01-15T05:54:42;98270.19;;;1.97;0.00
60611;BME280;46439;51.164;13.572;2024-01-15T05:57:10;98268.76;;;1.99;0.00
60611;BME280;46439;51.164;13.572;2024-01-15T05:59:38;98266.27;;;2.02;0.00
60611;BME280;46439;51.164;13.572;2024-01-15T06:02:06;98269.79;;;2.01;0.00
60611;BME280;46439;51.164;13.572;2024-01-15T06:04:34;98272.55;;;2.04;0.00
60611;BME280;46439;51.164;13.572;2024-01-15T06:07:02;98274.85;;;2.08;0.00
60611;BME280;46439;51.164;13.572;2024-01-15T06:09:30;98270.52;;;2.08;0.00
60611;BME280;46439;51.164;13.572;2024-01-15T06:11:59;98266.09;;;2.08;0.00
60611;BME280;46439;51.164;13.572;2024-01-15T06:14:27;98262.02;;;2.08;0.00
60611;BME280;46439;51.164;13.572;2024-01-15T06:16:55;98260.34;;;2.09;0.00
60611;BME280;46439;51.164;13.572;2024-01-15T06:19:23;98265.40;;;2.08;0.00
60611;BME280;46439;51.164;13.572;2024-01-15T06:21:54;98260.37;;;2.06;0.00
60611;BME280;46439;51.164;13.572;2024-01-15T06:24:26;98261.34;;;2.05;0.00
60611;BME280;46439;51.164;13.572;2024-01-15T06:26:54;98252.42;;;2.05;0.00
60611;BME280;46439;51.164;13.572;2024-01-15T06:29:24;98252.16;;;2.06;0.00
60611;BME280;46439;51.164;13.572;2024-01-15T06:31:53;98245.34;;;2.08;0.00
60611;BME280;46439;51.164;13.572;2024-01-15T06:34:22;98245.30;;;2.10;0.00
60611;BME280;46439;51.164;13.572;2024-01-15T06:36:50;98239.17;;;2.16;0.00
60611;BME280;46439;51.164;13.572;2024-01-15T06:39:18;98237.81;;;2.19;0.00
60611;BME280;46439;51.164;13.572;2024-01-15T06:41:46;98242.17;;;2.20;0.00
60611;BME280;46439;51.164;13.572;2024-01-15T06:44:14;98239.84;;;2.20;0.00
60611;BME280;46439;51.164;13.572;2024-01-15T06:46:44;98236.60;;;2.22;0.00
60611;BME280;46439;51.164;13.572;2024-01-15T06:49:13;98235.30;;;2.22;0.00
60611;BME280;46439;51.164;13.572;2024-01-15T06:51:41;98232.24;;;2.24;0.00
60611;BME280;46439;51.164;13.572;2024-01-15T06:54:10;98237.17;;;2.23;0.00
60611;BME280;46439;51.164;13.572;2024-01-15T06:56:38;98242.54;;;2.23;0.00
60611;BME280;46439;51.164;13.572;2024-01-15T06:59:06;98239.11;;;2.22;0.00
60611;BME280;46439;51.164;13.572;2024-01-15T07:01:34;98245.03;;;2.21;0.00
60611;BME280;46439;51.164;13.572;2024-01-15T07:04:02;98250.29;;;2.22;0.00
60611;BME280;46439;51.164;13.572;2024-01-15T07:06:31;98246.29;;;2.22;0.00
60611;BME280;46439;51.164;13.572;2024-01-15T07:08:59;98251.31;;;2.24;0.00
60611;BME280;46439;51.164;13.572;2024-01-15T07:11:28;98260.77;;;2.23;0.00
60611;BME280;46439;51.164;13.572;2024-01-15T07:13:56;98265.16;;;2.24;0.00
60611;BME280;46439;51.164;13.572;2024-01-15T07:16:24;98269.92;;;2.22;0.00
60611;BME280;46439;51.164;13.572;2024-01-15T07:18:52;98268.72;;;2.21;0.00
60611;BME280;46439;51.164;13.572;2024-01-15T07:21:20;98272.17;;;2.18;0.00
60611;BME280;46439;51.164;13.572;2024-01-15T07:23:48;98271.69;;;2.16;0.00
60611;BME280;46439;51.164;13.572;2024-01-15T07:26:16;98271.78;;;2.08;0.00
60611;BME280;46439;51.164;13.572;2024-01-15T07:28:44;98272.41;;;2.11;0.00
60611;BME280;46439;51.164;13.572;2024-01-15T07:31:13;98267.04;;;2.13;0.00
60611;BME280;46439;51.164;13.572;2024-01-15T07:33:43;98268.33;;;2.11;0.00
60611;BME280;46439;51.164;13.572;2024-01-15T07:36:11;98270.09;;;2.08;0.00
60611;BME280;46439;51.164;13.572;2024-01-15T07:38:39;98274.54;;;2.09;0.00
60611;BME280;46439;51.164;13.572;2024-01-15T07:41:07;98271.79;;;2.05;0.00
60611;BME280;46439;51.164;13.572;2024-01-15T07:43:35;98265.66;;;2.04;0.00
60611;BME280;46439;51.164;13.572;2024-01-15T07:46:04;98273.38;;;2.05;0.00
60611;BME280;46439;51.164;13.572;2024-01-15T07:48:32;98273.02;;;2.02;0.00
60611;BME280;46439;51.164;13.572;2024-01-15T07:51:00;98275.95;;;1.99;0.00
60611;BME280;46439;51.164;13.572;2024-01-15T07:53:28;98275.47;;;2.02;0.00
60611;BME280;46439;51.164;13.572;2024-01-15T07:55:56;98277.73;;;2.02;0.00
60611;BME280;46439;51.164;13.572;2024-01-15T07:58:24;98277.51;;;2.03;0.00
60611;BME280;46439;51.164;13.572;2024-01-15T08:00:52;98278.51;;;2.05;0.00
60611;BME280;46439;51.164;13.572;2024-01-15T08:03:20;98280.91;;;2.06;0.00
60611;BME280;46439;51.164;13.572;2024-01-15T08:05:48;98276.91;;;2.07;0.00
60611;BME280;46439;51.164;13.572;2024-01-15T08:08:20;98274.82;;;2.08;0.00
60611;BME280;46439;51.164;13.572;2024-01-15T08:10:49;98278.40;;;2.11;0.00
60611;BME280;46439;51.164;13.572;2024-01-15T08:13:17;98284.77;;;2.11;0.00
60611;BME280;46439;51.164;13.572;2024-01-15T08:15:46;98279.52;;;2.10;0.00
60611;BME280;46439;51.164;13.572;2024-01-15T08:18:14;98284.27;;;2.11;0.00
60611;BME280;46439;51.164;13.572;2024-01-15T08:20:42;98292.91;;;2.12;0.00
60611;BME280;46439;51.164;13.572;2024-01-15T08:23:10;98285.82;;;2.11;0.00
60611;BME280;46439;51.164;13.572;2024-01-15T08:25:38;98277.80;;;2.12;0.00
60611;BME280;46439;51.164;13.572;2024-01-15T08:28:06;98283.80;;;2.12;0.00
60611;BME280;46439;51.164;13.572;2024-01-15T08:30:36;98290.32;;;2.14;0.00
60611;BME280;46439;51.164;13.572;2024-01-15T08:33:04;98292.58;;;2.15;0.00
60611;BME280;46439;51.164;13.572;2024-01-15T08:35:32;98288.56;;;2.13;0.00
60611;BME280;46439;51.164;13.572;2024-01-15T08:38:00;98295.14;;;2.12;0.00
60611;BME280;46439;51.164;13.572;2024-01-15T08:40:28;98288.16;;;2.13;0.00
60611;BME280;46439;51.164;13.572;2024-01-15T08:42:56;98288.40;;;2.14;0.00
60611;BME280;46439;51.164;13.572;2024-01-15T08:45:25;98281.93;;;2.09;0.00
60611;BME280;46439;51.164;13.572;2024-01-15T08:47:53;98290.45;;;2.11;0.00
60611;BME280;46439;51.164;13.572;2024-01-15T08:50:21;98286.30;;;2.16;0.00
60611;BME280;46439;51.164;13.572;2024-01-15T08:52:49;98288.77;;;2.17;0.00
60611;BME280;46439;51.164;13.572;2024-01-15T08:55:17;98291.48;;;2.21;0.00
60611;BME280;46439;51.164;13.572;2024-01-15T08:57:45;98298.27;;;2.23;0.00
60611;BME280;46439;51.164;13.572;2024-01-15T09:00:16;98297.17;;;2.23;0.00
60611;BME280;46439;51.164;13.572;2024-01-15T09:02:45;98297.41;;;2.27;0.00
60611;BME280;46439;51.164;13.572;2024-01-15T09:05:13;98302.30;;;2.35;0.00
60611;BME280;46439;51.164;13.572;2024-01-15T09:07:41;98302.34;;;2.36;0.00
60611;BME280;46439;51.164;13.572;2024-01-15T09:10:10;98300.20;;;2.38;0.00
60611;BME280;46439;51.164;13.572;2024-01-15T09:12:38;98304.66;;;2.41;0.00
60611;BME280;46439;51.164;13.572;2024-01-15T09:15:08;98300.94;;;2.42;0.00
60611;BME280;46439;51.164;13.572;2024-01-15T09:17:36;98298.86;;;2.43;0.00
60611;BME280;46439;51.164;13.572;2024-01-15T09:20:06;98298.87;;;2.42;0.00
60611;BME280;46439;51.164;13.572;2024-01-15T09:22:34;98294.64;;;2.40;0.00
60611;BME280;46439;51.164;13.572;2024-01-15T09:25:03;98299.17;;;2.42;0.00
60611;BME280;46439;51.164;13.572;2024-01-15T09:27:32;98298.98;;;2.49;0.00
60611;BME280;46439;51.164;13.572;2024-01-15T09:30:00;98294.94;;;2.52;0.00
60611;BME280;46439;51.164;13.572;2024-01-15T09:32:29;98298.79;;;2.54;0.00
60611;BME280;46439;51.164;13.572;2024-01-15T09:34:57;98302.89;;;2.59;0.00
60611;BME280;46439;51.164;13.572;2024-01-15T09:37:25;98303.98;;;2.63;0.00
60611;BME280;46439;51.164;13.572;2024-01-15T09:39:53;98309.10;;;2.64;0.00
60611;BME280;46439;51.164;13.572;2024-01-15T09:42:24;98308.73;;;2.64;0.00
60611;BME280;46439;51.164;13.572;2024-01-15T09:44:53;98307.73;;;2.66;0.00
60611;BME280;46439;51.164;13.572;2024-01-15T09:47:22;98314.79;;;2.65;0.00
60611;BME280;46439;51.164;13.572;2024-01-15T09:49:50;98310.62;;;2.72;0.00
60611;BME280;46439;51.164;13.572;2024-01-15T09:52:20;98315.05;;;2.78;0.00
60611;BME280;46439;51.164;13.572;2024-01-15T09:54:49;98315.71;;;2.81;0.00
60611;BME280;46439;51.164;13.572;2024-01-15T09:57:18;98306.94;;;2.85;0.00
60611;BME280;46439;51.164;13.572;2024-01-15T09:59:47;98310.02;;;2.89;0.00
60611;BME280;46439;51.164;13.572;2024-01-15T10:02:15;98314.70;;;2.98;0.00
60611;BME280;46439;51.164;13.572;2024-01-15T10:04:46;98310.45;;;3.03;0.00
60611;BME280;46439;51.164;13.572;2024-01-15T10:07:16;98308.69;;;3.04;0.00
60611;BME280;46439;51.164;13.572;2024-01-15T10:09:47;98301.49;;;3.05;0.00
60611;BME280;46439;51.164;13.572;2024-01-15T10:12:15;98304.68;;;3.07;0.00
60611;BME280;46439;51.164;13.572;2024-01-15T10:14:44;98300.09;;;3.15;0.00
60611;BME280;46439;51.164;13.572;2024-01-15T10:17:15;98298.06;;;3.22;0.00
60611;BME280;46439;51.164;13.572;2024-01-15T10:19:44;98296.42;;;3.25;0.00
60611;BME280;46439;51.164;13.572;2024-01-15T10:22:13;98298.83;;;3.31;0.00
60611;BME280;46439;51.164;13.572;2024-01-15T10:24:42;98296.27;;;3.32;0.00
60611;BME280;46439;51.164;13.572;2024-01-15T10:27:17;98299.55;;;3.31;0.00
60611;BME280;46439;51.164;13.572;2024-01-15T10:29:45;98296.38;;;3.33;0.00
60611;BME280;46439;51.164;13.572;2024-01-15T10:32:13;98294.67;;;3.38;0.00
60611;BME280;46439;51.164;13.572;2024-01-15T10:34:41;98293.88;;;3.42;0.00
60611;BME280;46439;51.164;13.572;2024-01-15T10:37:11;98296.11;;;3.42;0.00
60611;BME280;46439;51.164;13.572;2024-01-15T10:39:39;98295.60;;;3.43;0.00
60611;BME280;46439;51.164;13.572;2024-01-15T10:42:07;98294.70;;;3.45;0.00
60611;BME280;46439;51.164;13.572;2024-01-15T10:44:36;98286.88;;;3.46;0.00
60611;BME280;46439;51.164;13.572;2024-01-15T10:47:05;98290.75;;;3.47;0.00
60611;BME280;46439;51.164;13.572;2024-01-15T10:49:33;98292.69;;;3.49;0.00
60611;BME280;46439;51.164;13.572;2024-01-15T10:52:02;98290.30;;;3.51;0.00
60611;BME280;46439;51.164;13.572;2024-01-15T10:54:30;98286.11;;;3.55;0.00
60611;BME280;46439;51.164;13.572;2024-01-15T10:56:59;98291.55;;;3.60;0.00
60611;BME280;46439;51.164;13.572;2024-01-15T10:59:28;98284.98;;;3.65;0.00
60611;BME280;46439;51.164;13.572;2024-01-15T11:01:56;98283.19;;;3.67;0.00
60611;BME280;46439;51.164;13.572;2024-01-15T11:04:25;98284.20;;;3.69;0.00
60611;BME280;46439;51.164;13.572;2024-01-15T11:06:57;98280.96;;;3.72;0.00
60611;BME280;46439;51.164;13.572;2024-01-15T11:09:25;98288.61;;;3.78;0.00
60611;BME280;46439;51.164;13.572;2024-01-15T11:12:07;98287.67;;;3.83;0.00
60611;BME280;46439;51.164;13.572;2024-01-15T11:14:40;98293.46;;;3.88;0.00
60611;BME280;46439;51.164;13.572;2024-01-15T11:17:08;98292.29;;;3.89;0.00
60611;BME280;46439;51.164;13.572;2024-01-15T11:19:38;98290.16;;;3.88;0.03
60611;BME280;46439;51.164;13.572;2024-01-15T11:22:46;98284.55;;;3.92;0.06
60611;BME280;46439;51.164;13.572;2024-01-15T11:25:03;98286.92;;;3.93;0.18
60611;BME280;46439;51.164;13.572;2024-01-15T11:27:45;98284.22;;;3.93;0.12
60611;BME280;46439;51.164;13.572;2024-01-15T11:30:15;98278.70;;;3.95;0.40
60611;BME280;46439;51.164;13.572;2024-01-15T11:32:43;98271.48;;;3.96;0.21
60611;BME280;46439;51.164;13.572;2024-01-15T11:35:13;98266.48;;;3.96;0.53
60611;BME280;46439;51.164;13.572;2024-01-15T11:38:01;98270.71;;;3.96;1.07
60611;BME280;46439;51.164;13.572;2024-01-15T11:40:40;98263.71;;;4.00;1.02
60611;BME280;46439;51.164;13.572;2024-01-15T11:43:10;98266.36;;;4.03;1.17
60611;BME280;46439;51.164;13.572;2024-01-15T11:45:41;98264.37;;;4.02;0.73
60611;BME280;46439;51.164;13.572;2024-01-15T11:48:14;98267.96;;;4.01;0.61
60611;BME280;46439;51.164;13.572;2024-01-15T11:50:44;98262.06;;;4.05;0.87
60611;BME280;46439;51.164;13.572;2024-01-15T11:53:21;98265.24;;;4.10;0.80
60611;BME280;46439;51.164;13.572;2024-01-15T11:55:52;98262.43;;;4.11;1.19
60611;BME280;46439;51.164;13.572;2024-01-15T11:58:20;98261.90;;;4.11;1.27
60611;BME280;46439;51.164;13.572;2024-01-15T12:00:49;98270.58;;;4.07;1.76
60611;BME280;46439;51.164;13.572;2024-01-15T12:03:18;98263.65;;;3.99;2.24
60611;BME280;46439;51.164;13.572;2024-01-15T12:05:48;98257.06;;;3.96;2.60
60611;BME280;46439;51.164;13.572;2024-01-15T12:08:20;98255.96;;;3.92;3.05
60611;BME280;46439;51.164;13.572;2024-01-15T12:10:46;98255.05;;;3.89;2.93
60611;BME280;46439;51.164;13.572;2024-01-15T12:13:15;98254.90;;;3.85;2.80
60611;BME280;46439;51.164;13.572;2024-01-15T12:15:46;98251.71;;;3.84;3.35
60611;BME280;46439;51.164;13.572;2024-01-15T12:18:17;98247.18;;;3.83;3.25
60611;BME280;46439;51.164;13.572;2024-01-15T12:20:46;98247.61;;;3.84;3.35
60611;BME280;46439;51.164;13.572;2024-01-15T12:23:14;98244.48;;;3.81;3.45
60611;BME280;46439;51.164;13.572;2024-01-15T12:25:43;98241.07;;;3.80;3.64
60611;BME280;46439;51.164;13.572;2024-01-15T12:28:12;98239.19;;;3.81;3.69
60611;BME280;46439;51.164;13.572;2024-01-15T12:30:40;98246.83;;;3.81;4.02
60611;BME280;46439;51.164;13.572;2024-01-15T12:33:09;98251.72;;;3.84;4.04
60611;BME280;46439;51.164;13.572;2024-01-15T12:35:37;98248.73;;;3.85;4.42
60611;BME280;46439;51.164;13.572;2024-01-15T12:38:05;98248.36;;;3.85;4.05
60611;BME280;46439;51.164;13.572;2024-01-15T12:40:34;98241.67;;;3.87;4.45
60611;BME280;46439;51.164;13.572;2024-01-15T12:43:02;98243.86;;;3.90;4.04
60611;BME280;46439;51.164;13.572;2024-01-15T12:45:31;98242.95;;;3.92;4.52
60611;BME280;46439;51.164;13.572;2024-01-15T12:47:59;98246.65;;;3.94;4.53
60611;BME280;46439;51.164;13.572;2024-01-15T12:50:28;98244.46;;;3.94;4.91
60611;BME280;46439;51.164;13.572;2024-01-15T12:52:56;98245.73;;;3.95;4.69
60611;BME280;46439;51.164;13.572;2024-01-15T12:55:27;98243.59;;;3.95;4.96
60611;BME280;46439;51.164;13.572;2024-01-15T12:57:56;98235.86;;;3.98;5.02
60611;BME280;46439;51.164;13.572;2024-01-15T13:00:24;98238.18;;;4.04;5.28
60611;BME280;46439;51.164;13.572;2024-01-15T13:02:53;98232.77;;;4.11;5.05
60611;BME280;46439;51.164;13.572;2024-01-15T13:05:23;98238.70;;;4.18;5.19
60611;BME280;46439;51.164;13.572;2024-01-15T13:07:52;98235.34;;;4.20;5.35
60611;BME280;46439;51.164;13.572;2024-01-15T13:10:21;98237.45;;;4.24;5.62
60611;BME280;46439;51.164;13.572;2024-01-15T13:12:49;98234.93;;;4.25;5.93
60611;BME280;46439;51.164;13.572;2024-01-15T13:15:18;98237.34;;;4.24;5.63
60611;BME280;46439;51.164;13.572;2024-01-15T13:17:46;98237.63;;;4.24;5.76